FW6620 Weather Reports


time (UTC)temp
C
wind
direction
speed
KPH
gust
KPH
rain 1hr
cm
rain 24hr
cm
rain mn
cm
humidity
%
barometer
mb
20260905161046 30 62 0.0 9.7 0.00 0.00 0.00 71 1015.6
20260905160544 30 74 0.0 9.7 0.00 0.00 0.00 72 1015.6
20260905160108 30 0 0.0 11.3 0.00 0.00 0.00 72 1015.5
20260905155545 30 0 0.0 11.3 0.00 0.00 0.00 75 1015.4
20260905155045 30 59 4.8 11.3 0.00 0.00 0.00 74 1015.5
20260905154632 30 0 0.0 9.7 0.00 0.00 0.00 75 1015.5
20260905154046 30 68 3.2 9.7 0.00 0.00 0.00 75 1015.5
20260905153549 29 65 1.6 9.7 0.00 0.00 0.00 76 1015.4
20260905153055 29 0 0.0 6.4 0.00 0.00 0.00 77 1015.5
20260905152546 29 0 0.0 6.4 0.00 0.00 0.00 78 1015.5
20260905152045 28 0 1.6 9.7 0.00 0.00 0.00 79 1015.5
20260905151601 28 0 0.0 9.7 0.00 0.00 0.00 80 1015.6
20260905151044 28 59 0.0 6.4 0.00 0.00 0.00 82 1015.5
20260905150544 28 56 1.6 6.4 0.00 0.00 0.00 82 1015.7
20260905150106 28 0 0.0 4.8 0.00 0.00 0.00 83 1015.7
20260905145546 28 62 0.0 4.8 0.00 0.00 0.00 83 1015.5
20260905145045 28 62 0.0 3.2 0.00 0.00 0.00 84 1015.4
20260905144556 27 0 0.0 3.2 0.00 0.00 0.00 86 1015.4
20260905144045 27 0 0.0 4.8 0.00 0.00 0.00 87 1015.4
20260905143545 27 0 0.0 4.8 0.00 0.00 0.00 88 1015.4
20260905143104 27 62 0.0 3.2 0.00 0.00 0.00 89 1015.4
20260905142545 27 0 0.0 3.2 0.00 0.00 0.00 90 1015.4
20260905142045 26 0 0.0 3.2 0.00 0.00 0.00 90 1015.4
20260905141600 26 0 0.0 3.2 0.00 0.00 0.00 91 1015.4
20260905141045 26 0 0.0 3.2 0.00 0.00 0.00 91 1015.3
20260905140545 26 0 0.0 1.6 0.00 0.00 0.00 91 1015.3
20260905140057 26 0 0.0 1.6 0.00 0.00 0.00 91 1015.3
20260905135545 26 0 0.0 1.6 0.00 0.00 0.00 92 1015.3
20260905135046 26 0 0.0 3.2 0.00 0.00 0.00 92 1015.3
20260905134603 26 0 0.0 3.2 0.00 0.00 0.00 92 1015.1
20260905134047 26 63 0.0 3.2 0.00 0.00 0.00 92 1015.1
20260905133549 26 0 0.0 3.2 0.00 0.00 0.00 92 1015.1
20260905133102 26 0 0.0 4.8 0.00 0.00 0.00 93 1015.1
20260905132549 26 0 0.0 4.8 0.00 0.00 0.00 93 1015.1
20260905132048 25 0 0.0 0.0 0.00 0.00 0.00 93 1015.0
20260905131602 25 0 0.0 0.0 0.00 0.00 0.00 93 1015.0
20260905131048 25 0 0.0 0.0 0.00 0.00 0.00 92 1014.9
20260905130553 25 0 0.0 0.0 0.00 0.00 0.00 91 1014.9
20260905130059 25 0 0.0 0.0 0.00 0.00 0.00 91 1014.9
20260905125549 25 0 0.0 0.0 0.00 0.00 0.00 91 1014.7
20260905125047 25 0 0.0 0.0 0.00 0.00 0.00 91 1014.6
20260905124558 25 0 0.0 0.0 0.00 0.00 0.00 91 1014.5
20260905124049 25 0 0.0 0.0 0.00 0.00 0.00 91 1014.5
20260905123547 25 0 0.0 0.0 0.00 0.00 0.00 92 1014.5
20260905123105 25 0 0.0 0.0 0.00 0.00 0.00 92 1014.3
20260905122548 25 0 0.0 0.0 0.00 0.00 0.00 92 1014.4
20260905122047 25 0 0.0 0.0 0.00 0.00 0.00 91 1014.3
20260905121559 25 0 0.0 0.0 0.00 0.00 0.00 91 1014.5
20260905121048 25 0 0.0 0.0 0.00 0.00 0.00 91 1014.5
20260905120548 25 0 0.0 0.0 0.00 0.00 0.00 91 1014.3
20260905120057 25 0 0.0 0.0 0.00 0.00 0.00 91 1014.4
20260905115547 25 0 0.0 0.0 0.00 0.00 0.00 91 1014.2
20260905115047 24 0 0.0 0.0 0.00 0.00 0.00 91 1014.2
20260905114606 25 0 0.0 0.0 0.00 0.00 0.00 92 1014.2
20260905114047 24 0 0.0 0.0 0.00 0.00 0.00 92 1014.1
20260905113548 24 0 0.0 0.0 0.00 0.00 0.00 92 1014.2
20260905113101 24 0 0.0 0.0 0.00 0.00 0.00 91 1014.2
20260905112548 25 0 0.0 0.0 0.00 0.00 0.00 91 1014.2
20260905112046 25 0 0.0 0.0 0.00 0.00 0.00 91 1014.1
20260905111627 25 0 0.0 0.0 0.00 0.00 0.00 91 1014.0
20260905111048 25 0 0.0 0.0 0.00 0.00 0.00 91 1014.0
20260905110547 25 0 0.0 0.0 0.00 0.00 0.00 91 1013.9
20260905110106 25 0 0.0 0.0 0.00 0.00 0.00 91 1014.0
20260905105547 25 0 0.0 0.0 0.00 0.00 0.00 91 1014.0
20260905105048 25 0 0.0 0.0 0.00 0.00 0.00 91 1014.0
20260905104619 25 0 0.0 0.0 0.00 0.00 0.00 90 1013.9
20260905104047 25 0 0.0 0.0 0.00 0.00 0.00 90 1013.9
20260905103547 25 0 0.0 0.0 0.00 0.00 0.00 90 1013.9
20260905103052 25 0 0.0 0.0 0.00 0.00 0.00 90 1013.9
20260905102546 25 0 0.0 0.0 0.00 0.00 0.00 90 1013.9
20260905102047 25 0 0.0 0.0 0.00 0.00 0.00 90 1014.0
20260905101559 25 0 0.0 0.0 0.00 0.00 0.00 90 1013.9
20260905101046 25 0 0.0 0.0 0.00 0.00 0.00 90 1013.9
20260905100547 25 0 0.0 0.0 0.00 0.00 0.00 90 1013.7
20260905100059 25 0 0.0 0.0 0.00 0.00 0.00 90 1013.8
20260905095547 25 0 0.0 0.0 0.00 0.00 0.00 89 1013.7
20260905095047 25 0 0.0 0.0 0.00 0.00 0.00 89 1013.8
20260905094716 25 0 0.0 0.0 0.00 0.00 0.00 89 1013.8
20260905094047 25 0 0.0 0.0 0.00 0.00 0.00 89 1013.7
20260905093547 26 0 0.0 0.0 0.00 0.00 0.00 88 1013.7
20260905093126 26 0 0.0 0.0 0.00 0.00 0.00 88 1013.7
20260905092546 26 0 0.0 0.0 0.00 0.00 0.00 87 1013.7
20260905092046 26 0 0.0 0.0 0.00 0.00 0.00 88 1013.7
20260905091603 26 0 0.0 0.0 0.00 0.00 0.00 88 1013.7
20260905091046 26 0 0.0 0.0 0.00 0.00 0.00 88 1013.8
20260905090546 26 0 0.0 0.0 0.00 0.00 0.00 87 1013.9
20260905090056 26 0 0.0 0.0 0.00 0.00 0.00 87 1013.9
20260905085547 26 0 0.0 0.0 0.00 0.00 0.00 87 1013.9
20260905085047 26 0 0.0 0.0 0.00 0.00 0.00 86 1013.9
20260905084606 26 0 0.0 0.0 0.00 0.00 0.00 87 1013.9
20260905084050 26 0 0.0 3.2 0.00 0.00 0.00 87 1013.9
20260905083547 26 0 0.0 3.2 0.00 0.00 0.00 87 1013.9
20260905083102 26 63 0.0 0.0 0.00 0.00 0.00 86 1013.9
20260905082547 26 0 0.0 1.6 0.00 0.00 0.00 86 1013.9
20260905082047 26 0 0.0 1.6 0.00 0.00 0.00 86 1014.0
20260905081557 26 0 0.0 1.6 0.00 0.00 0.00 85 1014.0
20260905081046 26 0 0.0 1.6 0.00 0.00 0.00 86 1014.0
20260905080547 26 0 0.0 0.0 0.00 0.00 0.00 86 1014.1
20260905080108 26 0 0.0 0.0 0.00 0.00 0.00 85 1014.1
20260905075548 27 0 0.0 3.2 0.00 0.00 0.00 85 1014.0
20260905075047 27 0 0.0 3.2 0.00 0.00 0.00 85 1014.0
20260905074606 27 0 0.0 4.8 0.00 0.00 0.00 85 1014.1
20260905074047 27 0 1.6 4.8 0.00 0.00 0.00 85 1014.2
20260905073548 27 0 0.0 1.6 0.00 0.00 0.00 84 1014.1
20260905073110 27 0 0.0 3.2 0.00 0.00 0.00 84 1014.1
20260905072546 27 0 0.0 9.7 0.00 0.00 0.00 84 1014.2
20260905072043 27 62 0.0 9.7 0.00 0.00 0.00 84 1014.3
20260905071558 27 60 0.0 3.2 0.00 0.00 0.00 84 1014.4
20260905071047 27 0 0.0 3.2 0.00 0.00 0.00 83 1014.5
20260905070546 27 0 0.0 3.2 0.00 0.00 0.00 83 1014.4
20260905070058 27 0 0.0 3.2 0.00 0.00 0.00 83 1014.5
20260905065549 27 0 0.0 9.7 0.00 0.00 0.00 83 1014.3
20260905065047 27 0 0.0 9.7 0.00 0.00 0.00 82 1014.3
20260905064559 27 0 0.0 6.4 0.00 0.00 0.00 82 1014.3
20260905064046 27 0 0.0 3.2 0.00 0.00 0.00 82 1014.3
20260905063547 27 0 0.0 3.2 0.00 0.00 0.00 82 1014.4
20260905063103 27 0 0.0 4.8 0.00 0.00 0.00 81 1014.5
20260905062546 27 0 0.0 4.8 0.00 0.00 0.00 81 1014.4
20260905062046 27 0 0.0 4.8 0.00 0.00 0.00 81 1014.5
20260905061604 27 0 0.0 9.7 0.00 0.00 0.00 81 1014.5
20260905061047 27 65 0.0 9.7 0.00 0.00 0.00 80 1014.5
20260905060547 27 0 0.0 6.4 0.00 0.00 0.00 80 1014.5
20260905060107 27 61 0.0 4.8 0.00 0.00 0.00 80 1014.4
20260905055548 27 0 0.0 9.7 0.00 0.00 0.00 79 1014.5
20260905055046 28 0 0.0 9.7 0.00 0.00 0.00 79 1014.4
20260905054604 28 65 0.0 4.8 0.00 0.00 0.00 79 1014.4
20260905054048 28 0 0.0 4.8 0.00 0.00 0.00 79 1014.5
20260905053549 28 0 0.0 6.4 0.00 0.00 0.00 78 1014.5
20260905053058 28 0 0.0 6.4 0.00 0.00 0.00 78 1014.5
20260905052546 28 0 0.0 4.8 0.00 0.00 0.00 78 1014.5
20260905052047 28 0 0.0 4.8 0.00 0.00 0.00 77 1014.6
20260905051609 28 64 0.0 4.8 0.00 0.00 0.00 77 1014.5
20260905051049 28 0 0.0 4.8 0.00 0.00 0.00 77 1014.6
20260905050547 28 0 0.0 9.7 0.00 0.00 0.00 77 1014.5
20260905050105 28 0 0.0 9.7 0.00 0.00 0.00 77 1014.5
20260905045546 28 56 0.0 1.6 0.00 0.00 0.00 76 1014.4
20260905045047 28 0 0.0 4.8 0.00 0.00 0.00 76 1014.5
20260905044556 28 0 0.0 4.8 0.00 0.00 0.00 76 1014.4
20260905044048 28 0 0.0 4.8 0.00 0.00 0.00 75 1014.4
20260905043601 28 0 0.0 4.8 0.00 0.00 0.00 75 1014.4
20260905043049 28 0 0.0 4.8 0.00 0.00 0.00 75 1014.4
20260905042551 28 0 0.0 4.8 0.00 0.00 0.00 75 1014.6
20260905042048 28 91 0.0 4.8 0.00 0.00 0.00 74 1014.5
20260905041608 28 0 0.0 4.8 0.00 0.00 0.00 74 1014.4
20260905041046 28 132 0.0 4.8 0.00 0.00 0.00 74 1014.4
20260905040546 28 94 0.0 6.4 0.00 0.00 0.00 74 1014.4
20260905040108 28 0 0.0 6.4 0.00 0.00 0.00 73 1014.4
20260905035547 28 0 0.0 6.4 0.00 0.00 0.00 73 1014.4
20260905035048 28 0 1.6 6.4 0.00 0.00 0.00 73 1014.4
20260905034550 29 0 0.0 11.3 0.00 0.00 0.00 73 1014.4
20260905034046 29 0 0.0 11.3 0.00 0.00 0.00 72 1014.4
20260905033547 29 76 0.0 9.7 0.00 0.00 0.00 72 1014.4
20260905033108 29 0 1.6 9.7 0.00 0.00 0.00 72 1014.3
20260905032546 29 0 0.0 3.2 0.00 0.00 0.00 71 1014.4
20260905032046 29 0 0.0 6.4 0.00 0.00 0.00 71 1014.4
20260905031604 29 0 0.0 6.4 0.00 0.00 0.00 71 1014.3
20260905031047 29 71 0.0 6.4 0.00 0.00 0.00 70 1014.2
20260905030546 29 0 0.0 4.8 0.00 0.00 0.00 70 1014.2
20260905025547 29 0 0.0 4.8 0.00 0.00 0.00 69 1014.1
20260905025046 29 66 0.0 3.2 0.00 0.00 0.00 69 1014.0
20260905024604 29 0 0.0 4.8 0.00 0.00 0.00 69 1014.0
20260905024051 30 0 0.0 4.8 0.00 0.00 0.00 69 1014.0
20260905023547 30 0 0.0 3.2 0.00 0.00 0.00 68 1013.9
20260905023102 30 0 0.0 3.2 0.00 0.00 0.00 69 1013.9
20260905022548 30 0 0.0 3.2 0.00 0.00 0.00 69 1013.8
20260905022046 30 0 0.0 3.2 0.00 0.00 0.00 69 1013.7
20260905021608 30 0 0.0 4.8 0.00 0.00 0.00 69 1013.7
20260905021046 30 0 0.0 4.8 0.00 0.00 0.00 69 1013.6
20260905020546 30 0 0.0 4.8 0.00 0.00 0.00 68 1013.5
20260905020056 30 0 0.0 1.6 0.00 0.00 0.00 69 1013.5
20260905015549 30 0 0.0 1.6 0.00 0.00 0.00 69 1013.5
20260905015046 30 0 0.0 0.0 0.00 0.00 0.00 69 1013.5
20260905014553 30 0 0.0 6.4 0.00 0.00 0.00 69 1013.5
20260905014046 30 0 0.0 6.4 0.00 0.00 0.00 69 1013.4
20260905013546 30 66 0.0 8.0 0.00 0.00 0.00 69 1013.4
20260905013120 30 0 0.0 8.0 0.00 0.00 0.00 68 1013.4
20260905012547 30 0 1.6 8.0 0.00 0.00 0.00 68 1013.3
20260905012046 30 58 0.0 0.0 0.00 0.00 0.00 68 1013.3
20260905011610 30 0 0.0 6.4 0.00 0.00 0.00 68 1013.2
20260905011046 30 0 0.0 6.4 0.00 0.00 0.00 68 1013.3
20260905010550 30 69 0.0 6.4 0.00 0.00 0.00 67 1013.1
20260905010100 31 58 0.0 6.4 0.00 0.00 0.00 67 1013.0
20260905005546 31 58 0.0 4.8 0.00 0.00 0.00 67 1013.0
20260905005046 31 0 0.0 4.8 0.00 0.00 0.00 67 1013.0
20260905004607 31 0 0.0 4.8 0.00 0.00 0.00 66 1012.9
20260905004047 31 65 0.0 6.4 0.00 0.00 0.00 66 1013.0
20260905003547 31 0 1.6 6.4 0.00 0.00 0.00 65 1012.9
20260905003102 31 65 0.0 3.2 0.00 0.00 0.00 64 1012.7
20260905002546 31 65 0.0 3.2 0.00 0.00 0.00 63 1012.7
20260905002047 31 0 0.0 4.8 0.00 0.00 0.00 63 1012.6
20260905001607 31 0 0.0 4.8 0.00 0.00 0.00 63 1012.7
20260905001046 31 64 0.0 4.8 0.00 0.00 0.00 63 1012.6
20260905000547 31 162 1.6 9.7 0.00 0.00 0.00 63 1012.6
20260905000109 31 0 1.6 9.7 0.00 0.00 0.00 62 1012.5
20260904235551 31 71 0.0 6.4 0.00 0.00 0.00 62 1012.4
20260904235046 31 96 0.0 6.4 0.00 0.00 0.00 62 1012.4
20260904234607 32 81 0.0 4.8 0.00 0.00 0.00 62 1012.4
20260904234050 32 68 0.0 3.2 0.00 0.00 0.00 62 1012.4
20260904233549 32 0 1.6 6.4 0.00 0.00 0.00 61 1012.4
20260904233100 32 0 0.0 6.4 0.00 0.00 0.00 61 1012.5
20260904232547 32 0 0.0 6.4 0.00 0.00 0.00 60 1012.4
20260904232045 32 70 0.0 4.8 0.00 0.00 0.00 60 1012.3
20260904231600 32 0 0.0 4.8 0.00 0.00 0.00 60 1012.4
20260904231046 33 75 0.0 4.8 0.00 0.00 0.00 60 1012.3
20260904230551 33 0 0.0 11.3 0.00 0.00 0.00 60 1012.4
20260904230109 33 67 1.6 11.3 0.00 0.00 0.00 59 1012.4
20260904225547 33 70 0.0 4.8 0.00 0.00 0.00 58 1012.4
20260904225046 33 70 0.0 4.8 0.00 0.00 0.00 56 1012.4
20260904224615 33 69 0.0 9.7 0.00 0.00 0.00 56 1012.3
20260904224049 33 0 0.0 9.7 0.00 0.00 0.00 55 1012.4
20260904223546 33 54 1.6 9.7 0.00 0.00 0.00 55 1012.4
20260904223111 33 0 0.0 9.7 0.00 0.00 0.00 55 1012.6
20260904222545 33 0 0.0 9.7 0.00 0.00 0.00 54 1012.6
20260904222046 34 65 1.6 11.3 0.00 0.00 0.00 53 1012.6
20260904221625 34 60 0.0 11.3 0.00 0.00 0.00 55 1012.5
20260904221100 33 54 0.0 4.8 0.00 0.00 0.00 54 1012.5
20260904220547 33 0 0.0 4.8 0.00 0.00 0.00 54 1012.5
20260904220057 33 0 0.0 3.2 0.00 0.00 0.00 53 1012.5
20260904215550 33 0 0.0 6.4 0.00 0.00 0.00 54 1012.6
20260904215046 33 72 1.6 6.4 0.00 0.00 0.00 53 1012.7
20260904214607 33 0 0.0 6.4 0.00 0.00 0.00 53 1012.8
20260904214046 33 0 0.0 6.4 0.00 0.00 0.00 54 1012.8
20260904213546 33 58 1.6 4.8 0.00 0.00 0.00 58 1012.9
20260904213102 33 77 0.0 4.8 0.00 0.00 0.00 61 1013.0
20260904212547 33 0 0.0 3.2 0.00 0.00 0.00 64 1013.0
20260904212047 33 0 0.0 6.4 0.00 0.00 0.00 63 1013.1
20260904211559 32 0 1.6 6.4 0.00 0.00 0.00 63 1013.1
20260904211046 32 0 1.6 6.4 0.00 0.00 0.00 66 1013.2
20260904210546 32 0 1.6 6.4 0.00 0.00 0.00 66 1013.3
20260904205547 32 0 0.0 6.4 0.00 0.00 0.00 68 1013.4
20260904205046 31 72 0.0 6.4 0.00 0.00 0.00 70 1013.5
20260904204609 31 72 0.0 4.8 0.00 0.00 0.00 70 1013.5
20260904204046 31 0 0.0 6.4 0.00 0.00 0.00 70 1013.6
20260904203549 31 0 1.6 6.4 0.00 0.00 0.00 71 1013.6
20260904203102 31 0 0.0 4.8 0.00 0.00 0.00 72 1013.8
20260904202546 31 0 0.0 4.8 0.00 0.00 0.00 71 1013.8
20260904202045 31 0 0.0 3.2 0.00 0.00 0.00 71 1013.9
20260904201628 30 0 0.0 3.2 0.00 0.00 0.00 72 1014.0
20260904201046 30 0 0.0 4.8 0.00 0.00 0.00 73 1014.1
20260904200546 30 0 0.0 4.8 0.00 0.00 0.00 73 1014.1
20260904200121 30 0 0.0 3.2 0.00 0.00 0.00 73 1014.1
20260904195546 30 0 0.0 3.2 0.00 0.00 0.00 74 1014.1
20260904195047 30 0 0.0 4.8 0.00 0.00 0.00 74 1014.2
20260904194606 30 60 0.0 4.8 0.00 0.00 0.00 74 1014.2
20260904194046 30 0 0.0 3.2 0.00 0.00 0.00 75 1014.2
20260904193546 30 0 0.0 3.2 0.00 0.00 0.00 75 1014.2
20260904193101 30 60 0.0 6.4 0.00 0.00 0.00 76 1014.3
20260904192546 30 0 0.0 6.4 0.00 0.00 0.00 76 1014.4
20260904192047 30 60 1.6 6.4 0.00 0.00 0.00 75 1014.3
20260904191600 30 0 0.0 3.2 0.00 0.00 0.00 76 1014.5
20260904191046 30 0 0.0 3.2 0.00 0.00 0.00 76 1014.6
20260904190546 30 0 0.0 4.8 0.00 0.00 0.00 77 1014.7
20260904190059 30 0 0.0 6.4 0.00 0.00 0.00 76 1014.8
20260904185548 30 0 0.0 6.4 0.00 0.00 0.00 77 1014.9
20260904185050 30 61 0.0 4.8 0.00 0.00 0.00 77 1014.9
20260904184607 30 61 0.0 4.8 0.00 0.00 0.00 78 1015.0
20260904184046 29 61 0.0 4.8 0.00 0.00 0.00 78 1015.1
20260904183546 29 0 0.0 4.8 0.00 0.00 0.00 78 1015.2
20260904183102 29 60 1.6 4.8 0.00 0.00 0.00 77 1015.3
20260904182545 29 0 0.0 4.8 0.00 0.00 0.00 78 1015.3
20260904182045 29 0 0.0 4.8 0.00 0.00 0.00 78 1015.5
20260904181557 29 0 0.0 4.8 0.00 0.00 0.00 78 1015.4
20260904181046 29 60 0.0 4.8 0.00 0.00 0.00 78 1015.4
20260904180546 29 0 1.6 4.8 0.00 0.00 0.00 78 1015.5
20260904180059 29 60 0.0 4.8 0.00 0.00 0.00 79 1015.4
20260904175547 29 0 0.0 3.2 0.00 0.00 0.00 79 1015.3
20260904175048 29 60 0.0 6.4 0.00 0.00 0.00 78 1015.4
20260904174557 29 60 0.0 6.4 0.00 0.00 0.00 77 1015.6
20260904174046 29 60 1.6 6.4 0.00 0.00 0.00 77 1015.7
20260904173547 29 60 0.0 4.8 0.00 0.00 0.00 78 1015.6
20260904173104 29 0 0.0 3.2 0.00 0.00 0.00 79 1015.6
20260904172547 29 60 0.0 4.8 0.00 0.00 0.00 79 1015.8
20260904172047 29 0 0.0 4.8 0.00 0.00 0.00 78 1015.7
20260904171619 29 60 0.0 4.8 0.00 0.00 0.00 78 1015.8
20260904171046 29 0 0.0 4.8 0.00 0.00 0.00 78 1015.9
20260904170546 29 0 0.0 4.8 0.00 0.00 0.00 79 1015.8
20260904170059 28 0 0.0 4.8 0.00 0.00 0.00 79 1015.8
20260904165546 28 0 0.0 4.8 0.00 0.00 0.00 79 1015.8
20260904165046 28 0 0.0 4.8 0.00 0.00 0.00 80 1015.7
20260904164607 28 0 0.0 4.8 0.00 0.00 0.00 80 1015.7
20260904164047 28 0 1.6 6.4 0.00 0.00 0.00 80 1015.7
20260904163546 28 0 0.0 6.4 0.00 0.00 0.00 81 1015.7
20260904163101 28 0 0.0 6.4 0.00 0.00 0.00 81 1015.7
20260904162546 28 0 0.0 6.4 0.00 0.00 0.00 82 1015.6
20260904162045 28 63 3.2 6.4 0.00 0.00 0.00 81 1015.7
20260904161611 28 0 0.0 3.2 0.00 0.00 0.00 82 1015.6